createdAt,value
2019-02-20T00:00:42.171Z,68.18
2019-02-20T00:03:11.543Z,69.44
2019-02-20T00:05:42.321Z,69.25
2019-02-20T00:08:12.534Z,69.97
2019-02-20T00:10:42.198Z,69.62
2019-02-20T00:13:11.311Z,70.04
2019-02-20T00:15:41.967Z,69.86
2019-02-20T00:18:11.140Z,70.15
2019-02-20T00:20:48.619Z,69.69
2019-02-20T00:23:18.004Z,66.26
2019-02-20T00:25:50.078Z,66.55
2019-02-20T00:28:19.598Z,67.56
2019-02-20T00:30:48.704Z,65.10
2019-02-20T00:33:17.818Z,62.85
2019-02-20T00:35:48.267Z,60.43
2019-02-20T00:38:19.205Z,61.25
2019-02-20T00:40:52.900Z,63.95
2019-02-20T00:43:22.021Z,65.27
2019-02-20T00:46:11.367Z,64.82
2019-02-20T00:49:12.414Z,65.81
2019-02-20T00:52:16.981Z,67.25
2019-02-20T00:54:49.201Z,68.33
2019-02-20T00:57:19.718Z,68.53
2019-02-20T00:59:54.785Z,68.46
2019-02-20T01:02:23.884Z,68.80
2019-02-20T01:04:55.218Z,68.95
2019-02-20T01:07:24.629Z,67.15
2019-02-20T01:09:54.037Z,67.30
2019-02-20T01:12:23.154Z,68.43
2019-02-20T01:14:53.967Z,66.55
2019-02-20T01:17:23.133Z,68.21
2019-02-20T01:19:53.372Z,67.95
2019-02-20T01:22:24.212Z,68.26
2019-02-20T01:24:53.380Z,69.24
2019-02-20T01:27:29.025Z,68.67
2019-02-20T01:29:58.150Z,69.94
2019-02-20T01:32:27.256Z,69.30
2019-02-20T01:34:58.126Z,69.42
2019-02-20T01:37:31.719Z,69.89
2019-02-20T01:40:05.088Z,69.31
2019-02-20T01:42:38.578Z,69.08
2019-02-20T01:45:07.924Z,69.62
2019-02-20T01:47:37.582Z,68.93
2019-02-20T01:50:08.668Z,69.67
2019-02-20T01:52:37.767Z,68.84
2019-02-20T01:55:09.296Z,68.82
2019-02-20T01:57:38.902Z,68.63
2019-02-20T02:00:09.195Z,69.71
2019-02-20T02:02:38.310Z,69.73
2019-02-20T02:05:15.274Z,69.54
2019-02-20T02:07:43.987Z,70.00
2019-02-20T02:10:13.156Z,70.30
2019-02-20T02:12:42.246Z,70.88
2019-02-20T02:15:20.093Z,70.35
2019-02-20T02:17:43.077Z,71.36
2019-02-20T02:20:12.305Z,71.04
2019-02-20T02:22:41.401Z,71.29
2019-02-20T02:25:10.559Z,70.90
2019-02-20T02:27:39.646Z,72.46
2019-02-20T02:30:12.655Z,71.52
2019-02-20T02:32:41.771Z,72.51
2019-02-20T02:35:15.031Z,72.03
2019-02-20T02:37:41.761Z,72.48
2019-02-20T02:40:10.902Z,72.38
2019-02-20T02:42:40.307Z,73.01
2019-02-20T02:45:09.469Z,74.37
2019-02-20T02:47:40.441Z,73.99
2019-02-20T02:50:11.041Z,74.02
2019-02-20T02:52:40.152Z,74.96
2019-02-20T02:55:09.262Z,74.57
2019-02-20T02:57:38.479Z,74.92
2019-02-20T03:00:09.740Z,74.13
2019-02-20T03:02:38.860Z,74.62
2019-02-20T03:05:08.286Z,74.06
2019-02-20T03:07:44.172Z,73.89
2019-02-20T03:10:13.598Z,74.90
2019-02-20T03:12:42.710Z,74.30
2019-02-20T03:15:11.829Z,74.57
2019-02-20T03:17:42.886Z,74.57
2019-02-20T03:20:12.730Z,75.34
2019-02-20T03:22:41.910Z,75.21
2019-02-20T03:25:11.121Z,74.39
2019-02-20T03:27:41.658Z,74.94
2019-02-20T03:30:16.028Z,74.20
2019-02-20T03:32:45.178Z,74.19
2019-02-20T03:35:14.300Z,73.54
2019-02-20T03:37:43.398Z,74.32
2019-02-20T03:40:12.513Z,75.42
2019-02-20T03:42:41.952Z,74.96
2019-02-20T03:45:15.262Z,75.20
2019-02-20T03:47:44.499Z,75.31
2019-02-20T03:50:13.694Z,74.16
2019-02-20T03:52:42.794Z,73.88
2019-02-20T03:55:12.512Z,74.44
2019-02-20T03:57:44.747Z,74.37
2019-02-20T04:00:13.855Z,74.95
2019-02-20T04:02:43.504Z,75.33
2019-02-20T04:05:15.040Z,75.28
2019-02-20T04:07:47.309Z,74.48
2019-02-20T04:10:20.575Z,74.03
2019-02-20T04:12:52.403Z,74.80
2019-02-20T04:15:23.703Z,74.34
2019-02-20T04:17:53.277Z,75.28
2019-02-20T04:20:23.730Z,74.80
2019-02-20T04:22:58.469Z,73.82
2019-02-20T04:25:27.594Z,73.82
2019-02-20T04:27:57.972Z,73.68
2019-02-20T04:30:27.276Z,74.11
2019-02-20T04:32:58.405Z,73.79
2019-02-20T04:35:30.526Z,73.52
2019-02-20T04:38:02.819Z,73.04
2019-02-20T04:40:32.414Z,74.21
2019-02-20T04:43:03.489Z,73.54
2019-02-20T04:45:35.809Z,74.00
2019-02-20T04:48:11.079Z,72.37
2019-02-20T04:50:50.076Z,72.74
2019-02-20T04:53:19.969Z,73.49
2019-02-20T04:55:52.453Z,72.60
2019-02-20T04:58:28.080Z,71.12
2019-02-20T05:01:05.961Z,71.22
2019-02-20T05:03:37.092Z,71.66
2019-02-20T05:06:06.561Z,72.41
2019-02-20T05:08:35.667Z,72.30
2019-02-20T05:11:05.482Z,73.24
2019-02-20T05:13:46.108Z,73.12
2019-02-20T05:16:16.815Z,70.21
2019-02-20T05:18:45.977Z,70.81
2019-02-20T05:21:18.381Z,73.01
2019-02-20T05:23:47.172Z,73.14
2019-02-20T05:26:18.521Z,70.99
2019-02-20T05:28:55.749Z,71.11
2019-02-20T05:31:27.484Z,73.58
2019-02-20T05:34:00.281Z,72.84
2019-02-20T05:36:29.369Z,73.10
2019-02-20T05:38:58.571Z,72.19
2019-02-20T05:41:35.367Z,73.56
2019-02-20T05:44:06.701Z,73.43
2019-02-20T05:46:38.766Z,73.88
2019-02-20T05:49:09.882Z,75.05
2019-02-20T05:51:43.042Z,73.74
2019-02-20T05:54:12.613Z,73.22
2019-02-20T05:56:41.843Z,72.98
2019-02-20T05:59:12.722Z,72.99
2019-02-20T06:01:46.165Z,73.82
2019-02-20T06:04:15.469Z,73.71
2019-02-20T06:06:46.465Z,73.66
2019-02-20T06:09:18.391Z,74.07
2019-02-20T06:11:49.207Z,73.81
2019-02-20T06:14:18.636Z,73.39
2019-02-20T06:16:49.048Z,73.49
2019-02-20T06:19:22.411Z,73.51
2019-02-20T06:21:51.870Z,73.34
2019-02-20T06:24:26.846Z,73.57
2019-02-20T06:26:56.101Z,73.82
2019-02-20T06:29:28.185Z,74.00
2019-02-20T06:31:57.672Z,73.80
2019-02-20T06:34:30.304Z,73.76
2019-02-20T06:37:00.344Z,73.31
2019-02-20T06:39:31.177Z,72.85
2019-02-20T06:42:03.256Z,74.12
2019-02-20T06:44:35.511Z,72.77
2019-02-20T06:47:07.367Z,73.94
2019-02-20T06:49:39.818Z,74.02
2019-02-20T06:52:12.141Z,73.85
2019-02-20T06:54:41.313Z,73.68
2019-02-20T06:57:11.290Z,72.88
2019-02-20T06:59:40.431Z,72.92
2019-02-20T07:02:09.847Z,72.82
2019-02-20T07:04:40.615Z,72.00
2019-02-20T07:07:34.895Z,71.85
2019-02-20T07:10:42.085Z,71.17
2019-02-20T07:13:17.726Z,69.30
2019-02-20T07:16:14.800Z,66.48
2019-02-20T07:19:29.815Z,64.26
2019-02-20T07:22:46.884Z,65.03
2019-02-20T07:25:26.028Z,67.26
2019-02-20T07:28:23.420Z,69.40
2019-02-20T07:30:58.444Z,69.74
2019-02-20T07:33:31.137Z,70.29
2019-02-20T07:36:03.573Z,70.55
2019-02-20T07:38:32.692Z,70.46
2019-02-20T07:41:07.163Z,69.97
2019-02-20T07:43:36.347Z,69.67
2019-02-20T07:46:09.151Z,70.31
2019-02-20T07:48:41.965Z,67.43
2019-02-20T07:51:11.240Z,67.12
2019-02-20T07:53:42.510Z,67.71
2019-02-20T07:56:11.956Z,68.12
2019-02-20T07:58:47.895Z,67.85
2019-02-20T08:01:17.201Z,66.35
2019-02-20T08:03:49.034Z,65.22
2019-02-20T08:06:20.299Z,65.29
2019-02-20T08:08:49.408Z,66.27
2019-02-20T08:11:18.518Z,63.86
2019-02-20T08:13:50.179Z,64.92
2019-02-20T08:16:19.805Z,63.16
2019-02-20T08:18:49.705Z,64.35
2019-02-20T08:21:19.468Z,64.17
2019-02-20T08:23:48.596Z,65.24
2019-02-20T08:26:23.446Z,66.39
2019-02-20T08:28:55.691Z,68.87
2019-02-20T08:31:26.124Z,68.97
2019-02-20T08:34:04.910Z,68.33
2019-02-20T08:36:38.126Z,69.34
2019-02-20T08:39:08.904Z,70.19
2019-02-20T08:41:41.993Z,70.60
2019-02-20T08:44:11.132Z,70.51
2019-02-20T08:46:40.503Z,70.58
2019-02-20T08:49:13.675Z,70.71
2019-02-20T08:51:48.155Z,70.01
2019-02-20T08:54:17.353Z,70.30
2019-02-20T08:56:49.151Z,69.82
2019-02-20T08:59:24.329Z,70.09
2019-02-20T09:02:05.593Z,70.01
2019-02-20T09:04:35.336Z,68.84
2019-02-20T09:07:13.349Z,67.02
2019-02-20T09:09:50.671Z,66.29
2019-02-20T09:12:31.712Z,65.12
2019-02-20T09:15:06.513Z,64.56
2019-02-20T09:17:36.022Z,65.28
2019-02-20T09:20:09.531Z,67.37
2019-02-20T09:22:57.021Z,65.73
2019-02-20T09:25:26.393Z,64.60
2019-02-20T09:27:59.181Z,63.15
2019-02-20T09:30:29.505Z,63.44
2019-02-20T09:33:03.539Z,62.39
2019-02-20T09:35:32.726Z,62.19
2019-02-20T09:38:12.503Z,63.05
2019-02-20T09:40:44.731Z,62.63
2019-02-20T09:43:13.840Z,61.75
2019-02-20T09:45:47.597Z,62.63
2019-02-20T09:48:16.805Z,61.39
2019-02-20T09:50:47.816Z,59.25
2019-02-20T09:53:17.058Z,60.54
2019-02-20T09:55:53.136Z,61.70
2019-02-20T09:58:23.355Z,61.52
2019-02-20T10:00:56.120Z,58.26
2019-02-20T10:03:32.077Z,59.37
2019-02-20T10:06:01.190Z,56.75
2019-02-20T10:08:35.651Z,54.98
2019-02-20T10:11:04.790Z,56.41
2019-02-20T10:13:37.910Z,54.35
2019-02-20T10:16:08.638Z,55.94
2019-02-20T10:18:41.802Z,53.88
2019-02-20T10:21:12.039Z,56.57
2019-02-20T10:23:45.249Z,53.84
2019-02-20T10:26:14.363Z,52.95
2019-02-20T10:28:43.535Z,52.97
2019-02-20T10:31:13.108Z,54.83
2019-02-20T10:33:45.273Z,52.73
2019-02-20T10:36:14.587Z,54.42
2019-02-20T10:38:43.724Z,55.90
2019-02-20T10:41:25.135Z,54.34
2019-02-20T10:43:55.648Z,54.33
2019-02-20T10:46:32.649Z,52.98
2019-02-20T10:49:10.895Z,53.21
2019-02-20T10:51:42.074Z,52.63
2019-02-20T10:54:21.326Z,54.53
2019-02-20T10:56:51.333Z,54.59
2019-02-20T10:59:21.629Z,53.52
2019-02-20T11:01:50.888Z,53.92
2019-02-20T11:04:22.229Z,54.06
2019-02-20T11:07:01.601Z,52.64
2019-02-20T11:09:31.956Z,52.87
2019-02-20T11:12:01.587Z,51.20
2019-02-20T11:14:34.179Z,51.17
2019-02-20T11:17:13.838Z,52.33
2019-02-20T11:19:45.820Z,50.80
2019-02-20T11:22:17.851Z,50.99
2019-02-20T11:24:54.526Z,52.73
2019-02-20T11:27:30.112Z,52.17
2019-02-20T11:30:00.734Z,53.29
2019-02-20T11:32:30.696Z,52.34
2019-02-20T11:35:19.933Z,54.38
2019-02-20T11:37:50.788Z,54.40
2019-02-20T11:40:21.933Z,52.71
2019-02-20T11:42:51.955Z,52.42
2019-02-20T11:45:23.090Z,51.26
2019-02-20T11:47:54.958Z,51.24
2019-02-20T11:50:25.850Z,50.55
2019-02-20T11:52:55.199Z,51.56
2019-02-20T11:55:24.377Z,53.78
2019-02-20T11:58:00.840Z,52.29
2019-02-20T12:00:30.121Z,49.91
2019-02-20T12:03:03.913Z,49.75
2019-02-20T12:05:38.210Z,50.85
2019-02-20T12:08:07.879Z,50.93
2019-02-20T12:10:46.142Z,50.16
2019-02-20T12:13:16.907Z,50.65
2019-02-20T12:15:47.411Z,50.61
2019-02-20T12:18:19.827Z,50.62
2019-02-20T12:20:55.543Z,49.13
2019-02-20T12:23:25.162Z,49.94
2019-02-20T12:25:56.135Z,49.56
2019-02-20T12:28:25.328Z,53.60
2019-02-20T12:30:56.186Z,52.36
2019-02-20T12:33:29.329Z,52.13
2019-02-20T12:36:01.064Z,51.13
2019-02-20T12:38:31.731Z,47.86
2019-02-20T12:41:00.914Z,50.00
2019-02-20T12:43:30.471Z,50.00
2019-02-20T12:45:59.750Z,49.35
2019-02-20T12:48:35.579Z,48.96
2019-02-20T12:51:04.723Z,48.94
2019-02-20T12:53:43.668Z,49.13
2019-02-20T12:56:14.184Z,49.90
2019-02-20T12:58:43.545Z,49.59
2019-02-20T13:01:12.685Z,49.89
2019-02-20T13:03:43.154Z,49.73
2019-02-20T13:06:14.178Z,49.34
2019-02-20T13:08:48.576Z,48.52
2019-02-20T13:11:33.831Z,48.01
2019-02-20T13:14:03.483Z,45.92
2019-02-20T13:16:38.324Z,45.50
2019-02-20T13:19:07.745Z,47.19
2019-02-20T13:21:37.932Z,47.89
2019-02-20T13:24:11.647Z,45.82
2019-02-20T13:26:43.495Z,45.58
2019-02-20T13:29:16.905Z,45.15
2019-02-20T13:32:05.222Z,46.23
2019-02-20T13:34:39.469Z,46.09
2019-02-20T13:37:09.950Z,48.37
2019-02-20T13:39:44.373Z,47.34
2019-02-20T13:42:14.653Z,48.71
2019-02-20T13:44:43.779Z,45.88
2019-02-20T13:47:14.816Z,42.94
2019-02-20T13:49:46.986Z,44.42
2019-02-20T13:52:16.148Z,50.82
2019-02-20T13:54:46.527Z,48.33
2019-02-20T13:57:16.548Z,45.97
2019-02-20T13:59:45.686Z,44.71
2019-02-20T14:02:17.946Z,42.87
2019-02-20T14:04:50.104Z,43.65
2019-02-20T14:07:19.997Z,43.58
2019-02-20T14:09:49.187Z,45.81
2019-02-20T14:12:18.645Z,46.15
2019-02-20T14:14:54.222Z,46.88
2019-02-20T14:17:27.898Z,44.97
2019-02-20T14:19:58.693Z,43.46
2019-02-20T14:22:28.267Z,45.11
2019-02-20T14:24:57.856Z,45.48
2019-02-20T14:27:27.417Z,42.28
2019-02-20T14:29:58.909Z,40.75
2019-02-20T14:32:28.087Z,39.83
2019-02-20T14:34:58.923Z,39.76
2019-02-20T14:37:31.215Z,41.83
2019-02-20T14:40:03.943Z,45.04
2019-02-20T14:42:38.759Z,46.51
2019-02-20T14:45:10.174Z,46.04
2019-02-20T14:47:42.400Z,44.20
2019-02-20T14:50:12.718Z,42.19
2019-02-20T14:52:44.545Z,41.38
2019-02-20T14:55:15.530Z,43.13
2019-02-20T14:57:44.700Z,46.03
2019-02-20T15:00:15.094Z,43.66
2019-02-20T15:02:44.303Z,45.26
2019-02-20T15:05:13.885Z,46.78
2019-02-20T15:07:44.939Z,46.01
2019-02-20T15:10:14.355Z,44.06
2019-02-20T15:12:44.034Z,43.50
2019-02-20T15:15:14.574Z,44.17
2019-02-20T15:17:44.462Z,46.21
2019-02-20T15:20:18.192Z,48.05
2019-02-20T15:22:47.303Z,48.92
2019-02-20T15:25:18.004Z,50.26
2019-02-20T15:27:48.893Z,49.81
2019-02-20T15:30:24.075Z,50.32
2019-02-20T15:32:53.335Z,47.57
2019-02-20T15:35:25.889Z,47.46
2019-02-20T15:37:55.188Z,45.83
2019-02-20T15:40:26.629Z,45.89
2019-02-20T15:42:58.557Z,44.61
2019-02-20T15:45:32.111Z,45.50
2019-02-20T15:48:02.613Z,47.14
2019-02-20T15:50:38.848Z,45.37
2019-02-20T15:53:08.091Z,47.19
2019-02-20T15:55:38.304Z,46.82
2019-02-20T15:58:07.705Z,48.26
2019-02-20T16:00:37.287Z,48.28
2019-02-20T16:03:06.479Z,47.67
2019-02-20T16:05:37.266Z,46.72
2019-02-20T16:08:07.350Z,47.86
2019-02-20T16:10:36.608Z,47.03
2019-02-20T16:13:07.440Z,48.04
2019-02-20T16:15:44.514Z,47.58
2019-02-20T16:18:13.622Z,47.01
2019-02-20T16:20:43.143Z,47.11
2019-02-20T16:23:12.619Z,47.55
2019-02-20T16:25:41.920Z,47.25
2019-02-20T16:28:12.489Z,49.15
2019-02-20T16:30:44.030Z,48.43
2019-02-20T16:33:14.198Z,49.72
2019-02-20T16:35:48.521Z,49.20
2019-02-20T16:38:18.343Z,49.39
2019-02-20T16:40:52.135Z,47.92
2019-02-20T16:43:22.019Z,47.62
2019-02-20T16:45:56.891Z,47.60
2019-02-20T16:48:30.739Z,47.28
2019-02-20T16:51:03.919Z,47.07
2019-02-20T16:53:33.459Z,47.60
2019-02-20T16:56:04.532Z,48.63
2019-02-20T16:58:35.060Z,50.40
2019-02-20T17:01:04.427Z,51.70
2019-02-20T17:03:36.811Z,51.88
2019-02-20T17:06:05.935Z,50.16
2019-02-20T17:08:38.443Z,49.30
2019-02-20T17:11:09.335Z,48.56
2019-02-20T17:13:59.086Z,48.71
2019-02-20T17:16:28.353Z,51.36
2019-02-20T17:18:59.789Z,51.50
2019-02-20T17:21:33.384Z,50.89
2019-02-20T17:24:04.569Z,51.58
2019-02-20T17:26:33.389Z,51.62
2019-02-20T17:29:02.880Z,51.03
2019-02-20T17:31:32.025Z,50.61
2019-02-20T17:34:03.600Z,50.78
2019-02-20T17:36:33.889Z,51.06
2019-02-20T17:39:07.381Z,51.11
2019-02-20T17:41:39.420Z,50.87
2019-02-20T17:44:11.555Z,51.13
2019-02-20T17:46:45.891Z,50.39
2019-02-20T17:49:16.329Z,51.50
2019-02-20T17:51:45.438Z,51.57
2019-02-20T17:54:24.515Z,52.21
2019-02-20T17:57:01.728Z,54.36
2019-02-20T17:59:30.939Z,53.47
2019-02-20T18:02:05.235Z,52.06
2019-02-20T18:04:39.937Z,51.46
2019-02-20T18:07:10.919Z,51.61
2019-02-20T18:09:52.348Z,51.08
2019-02-20T18:12:21.523Z,51.65
2019-02-20T18:14:52.550Z,51.54
2019-02-20T18:17:23.760Z,51.07
2019-02-20T18:19:52.683Z,52.25
2019-02-20T18:22:21.822Z,53.48
2019-02-20T18:24:51.943Z,52.81
2019-02-20T18:27:23.543Z,52.76
2019-02-20T18:29:53.213Z,53.25
2019-02-20T18:32:25.017Z,53.98
2019-02-20T18:34:54.228Z,54.29
2019-02-20T18:37:24.325Z,54.38
2019-02-20T18:39:53.466Z,53.34
2019-02-20T18:42:25.329Z,52.72
2019-02-20T18:44:55.750Z,52.88
2019-02-20T18:47:25.194Z,52.69
2019-02-20T18:49:57.333Z,52.52
2019-02-20T18:52:26.503Z,53.13
2019-02-20T18:55:05.355Z,55.09
2019-02-20T18:57:28.522Z,57.53
2019-02-20T18:59:57.716Z,58.79
2019-02-20T19:02:26.954Z,58.63
2019-02-20T19:04:56.150Z,56.96
2019-02-20T19:07:25.328Z,57.58
2019-02-20T19:09:56.383Z,59.61
2019-02-20T19:12:52.471Z,59.10
2019-02-20T19:15:47.437Z,60.05
2019-02-20T19:19:01.728Z,59.79
2019-02-20T19:21:39.751Z,59.44
2019-02-20T19:24:52.557Z,59.65
2019-02-20T19:27:38.709Z,60.39
2019-02-20T19:30:40.161Z,59.84
2019-02-20T19:33:44.785Z,58.10
2019-02-20T19:36:52.179Z,61.10
2019-02-20T19:40:11.754Z,60.55
2019-02-20T19:43:27.325Z,61.32
2019-02-20T19:46:16.712Z,61.48
2019-02-20T19:49:15.310Z,62.00
2019-02-20T19:52:13.229Z,61.82
2019-02-20T19:54:50.804Z,61.57
2019-02-20T19:58:19.595Z,63.43
2019-02-20T20:01:18.065Z,63.21
2019-02-20T20:04:12.096Z,63.82
2019-02-20T20:07:27.387Z,62.66
2019-02-20T20:10:41.336Z,62.12
2019-02-20T20:13:38.853Z,62.15
2019-02-20T20:16:42.826Z,62.40
2019-02-20T20:19:40.329Z,61.48
2019-02-20T20:22:38.598Z,62.33
2019-02-20T20:25:48.584Z,61.55
2019-02-20T20:29:21.913Z,61.89
2019-02-20T20:32:07.984Z,61.50
2019-02-20T20:35:20.898Z,63.11
2019-02-20T20:38:05.968Z,61.79
2019-02-20T20:41:18.733Z,61.15
2019-02-20T20:44:31.878Z,62.23
2019-02-20T20:47:41.718Z,61.06
2019-02-20T20:51:03.986Z,60.13
2019-02-20T20:54:13.881Z,61.90
2019-02-20T20:57:04.752Z,62.27
2019-02-20T21:00:16.893Z,63.03
2019-02-20T21:03:00.163Z,64.16
2019-02-20T21:05:55.758Z,63.50
2019-02-20T21:08:41.541Z,63.47
2019-02-20T21:12:01.269Z,63.49
2019-02-20T21:15:02.421Z,62.69
2019-02-20T21:18:03.557Z,64.41
2019-02-20T21:21:03.461Z,63.33
2019-02-20T21:24:08.259Z,62.78
2019-02-20T21:27:18.768Z,64.59
2019-02-20T21:30:29.547Z,65.38
2019-02-20T21:33:35.517Z,64.38
2019-02-20T21:36:32.426Z,63.78
2019-02-20T21:39:43.815Z,64.42
2019-02-20T21:42:52.103Z,64.31
2019-02-20T21:46:13.141Z,66.62
2019-02-20T21:49:18.977Z,66.84
2019-02-20T21:52:20.911Z,67.07
2019-02-20T21:55:08.355Z,66.28
2019-02-20T21:58:09.109Z,66.60
2019-02-20T22:01:16.605Z,67.05
2019-02-20T22:04:07.617Z,67.67
2019-02-20T22:07:31.498Z,67.50
2019-02-20T22:10:42.288Z,67.13
2019-02-20T22:13:49.655Z,68.23
2019-02-20T22:16:41.572Z,68.10
2019-02-20T22:20:00.625Z,67.72
2019-02-20T22:23:10.718Z,67.65
2019-02-20T22:26:18.063Z,68.43
2019-02-20T22:29:50.326Z,70.11
2019-02-20T22:32:53.585Z,69.73
2019-02-20T22:35:47.799Z,69.24
2019-02-20T22:39:01.475Z,69.40
2019-02-20T22:42:14.585Z,70.11
2019-02-20T22:45:35.943Z,69.34
2019-02-20T22:48:49.161Z,70.42
2019-02-20T22:52:02.135Z,69.85
2019-02-20T22:55:07.569Z,70.21
2019-02-20T22:58:19.937Z,69.83
2019-02-20T23:01:30.060Z,69.77
2019-02-20T23:05:01.358Z,68.95
2019-02-20T23:08:02.798Z,68.87
2019-02-20T23:11:16.129Z,67.45
2019-02-20T23:13:56.562Z,65.43
2019-02-20T23:16:25.722Z,62.19
2019-02-20T23:18:59.042Z,62.29
2019-02-20T23:21:28.534Z,60.84
2019-02-20T23:23:57.684Z,60.89
2019-02-20T23:26:29.230Z,62.10
2019-02-20T23:29:00.484Z,62.72
2019-02-20T23:31:30.749Z,65.23
2019-02-20T23:33:59.906Z,66.36
2019-02-20T23:36:29.073Z,68.30
2019-02-20T23:39:01.029Z,68.29
2019-02-20T23:41:31.456Z,69.01
2019-02-20T23:44:03.905Z,69.09
2019-02-20T23:46:33.021Z,69.62
2019-02-20T23:49:02.295Z,69.55
2019-02-20T23:51:38.901Z,70.18
2019-02-20T23:54:09.237Z,69.11
2019-02-20T23:56:40.317Z,69.58
2019-02-20T23:59:13.919Z,70.30
